createdAt,value
2019-02-15T00:00:51.288Z,7.93
2019-02-15T00:02:01.571Z,7.91
2019-02-15T00:03:11.586Z,7.93
2019-02-15T00:04:21.607Z,7.92
2019-02-15T00:05:31.821Z,7.89
2019-02-15T00:06:41.941Z,7.88
2019-02-15T00:07:51.420Z,7.85
2019-02-15T00:09:01.437Z,7.92
2019-02-15T00:10:11.474Z,7.92
2019-02-15T00:11:21.917Z,7.91
2019-02-15T00:12:32.038Z,7.86
2019-02-15T00:13:42.104Z,7.85
2019-02-15T00:14:52.134Z,7.85
2019-02-15T00:16:02.161Z,7.91
2019-02-15T00:17:11.906Z,7.78
2019-02-15T00:18:21.938Z,7.92
2019-02-15T00:19:32.008Z,7.88
2019-02-15T00:20:42.019Z,7.88
2019-02-15T00:21:52.264Z,7.8
2019-02-15T00:23:02.311Z,7.83
2019-02-15T00:24:12.073Z,7.82
2019-02-15T00:25:22.071Z,7.71
2019-02-15T00:26:31.840Z,7.74
2019-02-15T00:27:41.900Z,7.73
2019-02-15T00:28:51.960Z,7.74
2019-02-15T00:30:02.492Z,7.78
2019-02-15T00:31:12.478Z,7.71
2019-02-15T00:32:22.503Z,7.68
2019-02-15T00:33:32.540Z,7.73
2019-02-15T00:34:42.320Z,7.73
2019-02-15T00:35:52.087Z,7.64
2019-02-15T00:37:02.096Z,7.7
2019-02-15T00:38:12.100Z,7.64
2019-02-15T00:39:21.852Z,7.61
2019-02-15T00:40:32.104Z,7.7
2019-02-15T00:41:42.110Z,7.56
2019-02-15T00:42:51.888Z,7.63
2019-02-15T00:44:01.891Z,7.51
2019-02-15T00:45:11.893Z,7.54
2019-02-15T00:46:22.161Z,7.49
2019-02-15T00:47:32.277Z,7.44
2019-02-15T00:48:42.013Z,7.52
2019-02-15T00:49:52.036Z,7.51
2019-02-15T00:51:01.535Z,7.54
2019-02-15T00:52:11.281Z,7.56
2019-02-15T00:53:21.300Z,7.56
2019-02-15T00:54:31.324Z,7.54
2019-02-15T00:55:41.086Z,7.54
2019-02-15T00:56:50.838Z,7.45
2019-02-15T00:58:00.814Z,7.52
2019-02-15T00:59:10.571Z,7.51
2019-02-15T01:00:20.671Z,7.51
2019-02-15T01:01:30.666Z,7.52
2019-02-15T01:02:40.676Z,7.4
2019-02-15T01:03:50.463Z,7.34
2019-02-15T01:05:00.538Z,7.34
2019-02-15T01:06:10.568Z,7.41
2019-02-15T01:07:20.624Z,7.36
2019-02-15T01:08:30.608Z,7.33
2019-02-15T01:09:40.710Z,7.36
2019-02-15T01:10:50.850Z,7.4
2019-02-15T01:12:00.606Z,7.37
2019-02-15T01:13:10.966Z,7.36
2019-02-15T01:14:21.025Z,7.44
2019-02-15T01:15:31.110Z,7.34
2019-02-15T01:16:41.238Z,7.34
2019-02-15T01:17:51.626Z,7.36
2019-02-15T01:19:01.708Z,7.44
2019-02-15T01:20:11.765Z,7.37
2019-02-15T01:21:21.815Z,7.33
2019-02-15T01:22:31.890Z,7.33
2019-02-15T01:23:41.962Z,7.48
2019-02-15T01:24:52.015Z,7.48
2019-02-15T01:26:01.815Z,7.34
2019-02-15T01:27:12.103Z,7.51
2019-02-15T01:28:21.742Z,7.51
2019-02-15T01:29:31.812Z,7.45
2019-02-15T01:30:41.930Z,7.48
2019-02-15T01:31:51.977Z,7.48
2019-02-15T01:33:02.094Z,7.39
2019-02-15T01:34:12.168Z,7.49
2019-02-15T01:35:22.022Z,7.45
2019-02-15T01:36:32.319Z,7.47
2019-02-15T01:37:42.420Z,7.48
2019-02-15T01:38:52.472Z,7.44
2019-02-15T01:40:02.766Z,7.4
2019-02-15T01:41:12.595Z,7.33
2019-02-15T01:42:22.930Z,7.36
2019-02-15T01:43:39.708Z,7.37
2019-02-15T01:44:50.201Z,7.31
2019-02-15T01:46:00.382Z,7.23
2019-02-15T01:47:10.495Z,7.19
2019-02-15T01:48:20.301Z,7.3
2019-02-15T01:49:30.454Z,7.22
2019-02-15T01:50:40.813Z,7.29
2019-02-15T01:51:51.142Z,7.27
2019-02-15T01:53:01.221Z,7.21
2019-02-15T01:54:11.513Z,7.26
2019-02-15T01:55:21.605Z,7.22
2019-02-15T01:56:31.670Z,7.23
2019-02-15T01:57:41.478Z,7.23
2019-02-15T01:58:51.547Z,7.27
2019-02-15T02:00:03.225Z,7.27
2019-02-15T02:01:13.469Z,7.23
2019-02-15T02:02:23.641Z,7.16
2019-02-15T02:03:33.942Z,7.29
2019-02-15T02:04:43.999Z,7.21
2019-02-15T02:05:54.601Z,7.27
2019-02-15T02:07:04.657Z,7.22
2019-02-15T02:08:14.748Z,7.26
2019-02-15T02:09:24.996Z,7.19
2019-02-15T02:10:34.829Z,7.18
2019-02-15T02:11:44.897Z,7.18
2019-02-15T02:12:54.955Z,7.16
2019-02-15T02:14:04.769Z,7.19
2019-02-15T02:15:15.073Z,7.16
2019-02-15T02:16:25.162Z,7.19
2019-02-15T02:17:35.016Z,7.22
2019-02-15T02:18:45.085Z,7.15
2019-02-15T02:19:54.941Z,7.13
2019-02-15T02:21:05.136Z,7.26
2019-02-15T02:22:15.021Z,7.12
2019-02-15T02:23:25.092Z,7.15
2019-02-15T02:24:35.219Z,7.15
2019-02-15T02:25:45.134Z,7.12
2019-02-15T02:26:55.194Z,7.16
2019-02-15T02:28:06.049Z,7.27
2019-02-15T02:29:16.101Z,7.15
2019-02-15T02:30:26.204Z,7.15
2019-02-15T02:31:36.438Z,7.21
2019-02-15T02:32:46.574Z,7.18
2019-02-15T02:33:56.418Z,7.18
2019-02-15T02:35:06.535Z,7.26
2019-02-15T02:36:16.611Z,7.27
2019-02-15T02:37:26.711Z,7.27
2019-02-15T02:38:36.815Z,7.26
2019-02-15T02:39:46.953Z,7.22
2019-02-15T02:40:56.778Z,7.22
2019-02-15T02:42:07.500Z,7.22
2019-02-15T02:43:17.621Z,7.27
2019-02-15T02:44:27.906Z,7.22
2019-02-15T02:45:38.012Z,7.27
2019-02-15T02:46:47.838Z,7.23
2019-02-15T02:47:57.970Z,7.18
2019-02-15T02:49:10.798Z,7.22
2019-02-15T02:50:20.940Z,7.21
2019-02-15T02:51:31.237Z,7.19
2019-02-15T02:52:41.265Z,7.23
2019-02-15T02:53:51.575Z,7.26
2019-02-15T02:55:01.693Z,7.19
2019-02-15T02:56:12.037Z,7.23
2019-02-15T02:57:21.837Z,7.18
2019-02-15T02:58:31.653Z,7.19
2019-02-15T02:59:41.737Z,7.13
2019-02-15T03:00:51.865Z,7.08
2019-02-15T03:02:01.939Z,7.19
2019-02-15T03:34:01.560Z,5.33
2019-02-15T03:35:11.681Z,5.34
2019-02-15T03:36:21.883Z,5.21
2019-02-15T03:37:31.972Z,5.28
2019-02-15T03:38:41.784Z,5.33
2019-02-15T03:39:51.671Z,5.36
2019-02-15T03:41:01.762Z,5.42
2019-02-15T03:42:11.827Z,5.55
2019-02-15T03:43:21.892Z,5.62
2019-02-15T03:44:31.961Z,5.69
2019-02-15T03:45:42.046Z,5.8
2019-02-15T03:46:52.615Z,5.89
2019-02-15T03:48:02.739Z,5.99
2019-02-15T03:49:12.831Z,6.15
2019-02-15T03:50:22.672Z,6.28
2019-02-15T03:51:32.971Z,6.31
2019-02-15T03:52:43.051Z,6.29
2019-02-15T03:53:53.181Z,6.44
2019-02-15T03:55:03.261Z,6.47
2019-02-15T03:56:13.332Z,6.58
2019-02-15T03:57:23.448Z,6.64
2019-02-15T03:58:33.929Z,6.7
2019-02-15T03:59:44.017Z,6.65
2019-02-15T04:00:54.318Z,6.8
2019-02-15T04:02:04.443Z,6.72
2019-02-15T04:03:14.555Z,6.79
2019-02-15T04:04:24.661Z,6.82
2019-02-15T04:05:34.734Z,6.83
2019-02-15T04:06:44.799Z,6.82
2019-02-15T04:07:54.816Z,6.8
2019-02-15T04:09:06.969Z,6.86
2019-02-15T04:10:17.047Z,6.95
2019-02-15T04:11:26.609Z,6.93
2019-02-15T04:12:37.285Z,7.01
2019-02-15T04:13:47.104Z,6.97
2019-02-15T04:14:57.225Z,6.97
2019-02-15T04:16:07.116Z,6.97
2019-02-15T04:17:17.195Z,7
2019-02-15T04:18:27.287Z,6.95
2019-02-15T04:19:37.103Z,6.93
2019-02-15T04:20:47.232Z,7.04
2019-02-15T04:21:57.616Z,7
2019-02-15T04:23:07.676Z,7.03
2019-02-15T04:24:18.487Z,7.01
2019-02-15T04:25:28.830Z,6.94
2019-02-15T04:26:38.905Z,7.01
2019-02-15T04:27:49.086Z,6.93
2019-02-15T04:28:59.180Z,6.9
2019-02-15T04:30:09.252Z,6.93
2019-02-15T04:31:19.356Z,6.93
2019-02-15T04:32:29.463Z,6.93
2019-02-15T04:33:39.324Z,6.98
2019-02-15T04:34:49.618Z,6.94
2019-02-15T04:35:59.680Z,6.98
2019-02-15T04:37:10.037Z,6.94
2019-02-15T04:38:20.160Z,6.93
2019-02-15T04:39:30.245Z,6.9
2019-02-15T04:40:40.338Z,6.95
2019-02-15T04:41:50.473Z,6.98
2019-02-15T04:43:02.483Z,6.94
2019-02-15T04:44:13.030Z,6.93
2019-02-15T04:45:23.312Z,6.94
2019-02-15T04:46:33.380Z,6.91
2019-02-15T04:47:43.478Z,6.95
2019-02-15T04:48:53.634Z,6.8
2019-02-15T04:50:03.938Z,6.79
2019-02-15T04:51:14.020Z,6.79
2019-02-15T04:52:23.857Z,6.83
2019-02-15T04:53:34.196Z,6.85
2019-02-15T04:54:44.501Z,6.85
2019-02-15T04:55:54.584Z,6.78
2019-02-15T04:57:04.642Z,6.82
2019-02-15T04:58:14.460Z,6.85
2019-02-15T04:59:24.622Z,6.76
2019-02-15T05:00:34.703Z,6.78
2019-02-15T05:01:44.586Z,6.78
2019-02-15T05:02:54.876Z,6.79
2019-02-15T05:04:05.115Z,6.86
2019-02-15T05:05:14.939Z,6.83
2019-02-15T05:06:25.001Z,6.78
2019-02-15T05:07:35.131Z,6.78
2019-02-15T05:08:45.334Z,6.79
2019-02-15T05:09:55.706Z,6.83
2019-02-15T05:11:06.112Z,6.85
2019-02-15T05:12:16.432Z,6.8
2019-02-15T05:13:26.252Z,6.85
2019-02-15T05:14:35.551Z,6.85
2019-02-15T05:15:46.034Z,6.78
2019-02-15T05:16:55.836Z,6.79
2019-02-15T05:18:07.021Z,6.83
2019-02-15T05:19:16.864Z,6.73
2019-02-15T05:20:26.691Z,6.76
2019-02-15T05:21:36.840Z,6.79
2019-02-15T05:22:46.941Z,6.78
2019-02-15T05:23:57.120Z,6.75
2019-02-15T05:25:07.238Z,6.85
2019-02-15T05:26:17.317Z,6.8
2019-02-15T05:27:27.128Z,6.76
2019-02-15T05:28:37.474Z,6.79
2019-02-15T05:29:47.576Z,6.79
2019-02-15T05:30:57.426Z,6.76
2019-02-15T05:32:07.348Z,6.67
2019-02-15T05:33:17.435Z,6.75
2019-02-15T05:34:27.614Z,6.7
2019-02-15T05:35:37.409Z,6.78
2019-02-15T05:36:47.213Z,6.72
2019-02-15T05:37:57.093Z,6.73
2019-02-15T05:39:07.165Z,6.72
2019-02-15T05:40:17.284Z,6.72
2019-02-15T05:41:27.351Z,6.68
2019-02-15T05:42:37.409Z,6.76
2019-02-15T05:43:47.554Z,6.7
2019-02-15T05:45:08.086Z,6.8
2019-02-15T05:46:17.390Z,6.68
2019-02-15T05:47:27.296Z,6.83
2019-02-15T05:48:37.105Z,6.78
2019-02-15T05:49:47.190Z,6.76
2019-02-15T05:50:57.544Z,6.73
2019-02-15T05:52:07.772Z,6.7
2019-02-15T05:53:17.870Z,6.73
2019-02-15T05:54:27.988Z,6.73
2019-02-15T05:55:37.794Z,6.73
2019-02-15T05:56:47.369Z,6.73
2019-02-15T05:57:57.438Z,6.72
2019-02-15T05:59:07.843Z,6.68
2019-02-15T06:00:17.148Z,6.65
2019-02-15T06:01:27.634Z,6.7
2019-02-15T06:02:37.475Z,6.68
2019-02-15T06:03:47.328Z,6.68
2019-02-15T06:04:57.449Z,6.67
2019-02-15T06:06:08.070Z,6.68
2019-02-15T06:07:18.090Z,6.64
2019-02-15T06:08:28.175Z,6.72
2019-02-15T06:09:39.131Z,6.61
2019-02-15T06:10:49.710Z,6.64
2019-02-15T06:11:59.568Z,6.6
2019-02-15T06:13:09.685Z,6.67
2019-02-15T06:14:19.740Z,6.72
2019-02-15T06:15:29.817Z,6.65
2019-02-15T06:16:39.895Z,6.7
2019-02-15T06:17:50.194Z,6.72
2019-02-15T06:19:00.496Z,6.72
2019-02-15T06:20:10.873Z,6.62
2019-02-15T06:21:21.050Z,6.68
2019-02-15T06:22:30.904Z,6.83
2019-02-15T06:23:40.962Z,6.79
2019-02-15T06:24:51.117Z,6.79
2019-02-15T06:26:02.998Z,6.82
2019-02-15T06:27:12.819Z,6.78
2019-02-15T06:28:22.656Z,6.9
2019-02-15T06:29:32.792Z,6.94
2019-02-15T06:30:42.886Z,6.98
2019-02-15T06:31:52.447Z,7.01
2019-02-15T06:33:02.498Z,7.01
2019-02-15T06:34:12.587Z,7
2019-02-15T06:35:22.390Z,7.03
2019-02-15T06:36:32.464Z,7.13
2019-02-15T06:37:42.266Z,7.08
2019-02-15T06:38:52.951Z,7.21
2019-02-15T06:40:03.083Z,7.09
2019-02-15T06:41:15.032Z,7.16
2019-02-15T06:42:24.853Z,7.21
2019-02-15T06:43:34.941Z,7.18
2019-02-15T06:44:45.029Z,7.23
2019-02-15T06:45:55.112Z,7.18
2019-02-15T06:47:07.993Z,7.29
2019-02-15T06:48:18.053Z,7.37
2019-02-15T06:49:28.140Z,7.33
2019-02-15T06:50:37.948Z,7.44
2019-02-15T06:51:48.009Z,7.37
2019-02-15T06:52:58.089Z,7.52
2019-02-15T06:54:09.199Z,7.49
2019-02-15T06:55:19.524Z,7.54
2019-02-15T06:56:29.593Z,7.63
2019-02-15T06:57:39.155Z,7.7
2019-02-15T06:58:51.692Z,7.75
2019-02-15T07:00:02.455Z,7.78
2019-02-15T07:01:12.309Z,7.86
2019-02-15T07:02:22.116Z,7.8
2019-02-15T07:03:32.444Z,7.85
2019-02-15T07:04:56.887Z,7.92
2019-02-15T07:06:06.945Z,7.88
2019-02-15T07:07:16.756Z,7.91
2019-02-15T07:08:26.931Z,7.93
2019-02-15T07:09:36.993Z,7.89
2019-02-15T07:10:47.113Z,7.93
2019-02-15T07:11:57.189Z,8.07
2019-02-15T07:13:07.253Z,8.07
2019-02-15T07:14:17.428Z,8.1
2019-02-15T07:15:36.155Z,8.21
2019-02-15T07:16:45.814Z,8.29
2019-02-15T07:17:55.873Z,8.4
2019-02-15T07:19:07.140Z,8.5
2019-02-15T07:20:17.189Z,8.46
2019-02-15T07:21:27.251Z,8.57
2019-02-15T07:22:37.263Z,8.62
2019-02-15T07:23:47.556Z,8.58
2019-02-15T07:24:57.588Z,8.71
2019-02-15T07:26:07.403Z,8.67
2019-02-15T07:27:17.762Z,8.67
2019-02-15T07:28:27.660Z,8.71
2019-02-15T07:29:37.793Z,8.72
2019-02-15T07:30:48.037Z,8.68
2019-02-15T07:31:58.337Z,8.72
2019-02-15T07:33:09.579Z,8.76
2019-02-15T07:34:19.439Z,8.77
2019-02-15T07:35:29.471Z,8.79
2019-02-15T07:36:39.544Z,8.72
2019-02-15T07:37:49.862Z,8.76
2019-02-15T07:38:59.930Z,8.77
2019-02-15T07:40:10.038Z,8.69
2019-02-15T07:41:20.127Z,8.62
2019-02-15T07:42:30.214Z,8.57
2019-02-15T07:43:39.850Z,8.67
2019-02-15T07:44:49.910Z,8.57
2019-02-15T07:45:59.766Z,8.54
2019-02-15T07:47:09.831Z,8.57
2019-02-15T07:48:19.657Z,8.67
2019-02-15T07:49:31.794Z,8.65
2019-02-15T07:50:41.630Z,8.72
2019-02-15T07:51:51.925Z,8.82
2019-02-15T07:53:01.754Z,8.8
2019-02-15T07:54:11.828Z,8.77
2019-02-15T07:55:21.900Z,8.8
2019-02-15T07:56:31.705Z,8.83
2019-02-15T07:57:41.781Z,8.82
2019-02-15T07:58:52.055Z,8.87
2019-02-15T08:00:02.985Z,8.92
2019-02-15T08:01:12.826Z,8.98
2019-02-15T08:02:22.683Z,9.03
2019-02-15T08:03:32.725Z,9.12
2019-02-15T08:04:42.659Z,9.26
2019-02-15T08:05:52.721Z,9.2
2019-02-15T08:07:02.811Z,9.32
2019-02-15T08:08:12.877Z,9.35
2019-02-15T08:09:22.935Z,9.45
2019-02-15T08:10:33.003Z,9.41
2019-02-15T08:11:44.875Z,9.44
2019-02-15T08:12:55.191Z,9.5
2019-02-15T08:14:14.288Z,9.56
2019-02-15T08:15:24.890Z,9.63
2019-02-15T08:16:43.715Z,9.57
2019-02-15T08:17:54.245Z,9.63
2019-02-15T08:19:04.622Z,9.62
2019-02-15T08:20:14.899Z,9.63
2019-02-15T08:21:24.969Z,9.7
2019-02-15T08:22:35.036Z,9.81
2019-02-15T08:23:45.344Z,9.85
2019-02-15T08:24:55.670Z,9.85
2019-02-15T08:26:08.097Z,9.84
2019-02-15T08:27:18.266Z,9.82
2019-02-15T08:28:28.341Z,9.95
2019-02-15T08:29:38.404Z,9.92
2019-02-15T08:30:48.473Z,9.93
2019-02-15T08:31:58.607Z,10.11
2019-02-15T08:33:08.416Z,10.14
2019-02-15T08:34:18.476Z,10.2
2019-02-15T08:35:28.536Z,10.28
2019-02-15T08:36:38.610Z,10.35
2019-02-15T08:37:48.425Z,10.39
2019-02-15T08:38:58.487Z,10.39
2019-02-15T08:40:10.887Z,10.57
2019-02-15T08:41:20.753Z,10.63
2019-02-15T08:42:30.547Z,10.69
2019-02-15T08:43:40.629Z,10.76
2019-02-15T08:44:50.681Z,10.9
2019-02-15T08:46:06.551Z,10.92
2019-02-15T08:47:16.927Z,11.03
2019-02-15T08:48:26.995Z,11.09
2019-02-15T08:49:36.870Z,11.18
2019-02-15T08:50:46.728Z,11.28
2019-02-15T08:51:56.534Z,11.24
2019-02-15T08:53:05.845Z,11.27
2019-02-15T08:54:15.676Z,11.34
2019-02-15T08:55:25.748Z,11.41
2019-02-15T08:56:36.079Z,11.33
2019-02-15T08:57:46.163Z,11.39
2019-02-15T08:58:55.984Z,11.35
2019-02-15T09:00:08.646Z,11.38
2019-02-15T09:01:18.696Z,11.48
2019-02-15T09:02:28.795Z,11.56
2019-02-15T09:03:38.946Z,11.45
2019-02-15T09:04:49.658Z,11.6
2019-02-15T09:05:59.740Z,11.7
2019-02-15T09:07:09.808Z,11.7
2019-02-15T09:08:19.867Z,11.66
2019-02-15T09:09:29.940Z,11.79
2019-02-15T09:10:39.977Z,11.78
2019-02-15T09:11:50.243Z,11.84
2019-02-15T09:13:00.767Z,11.84
2019-02-15T09:14:11.104Z,11.95
2019-02-15T09:15:21.195Z,11.91
2019-02-15T09:16:31.256Z,12.1
2019-02-15T09:17:41.364Z,12.03
2019-02-15T09:18:51.461Z,11.97
2019-02-15T09:20:02.473Z,12.11
2019-02-15T09:21:12.536Z,11.98
2019-02-15T09:22:22.595Z,12.08
2019-02-15T09:23:32.700Z,12.08
2019-02-15T09:24:42.936Z,12.16
2019-02-15T09:25:52.996Z,12.2
2019-02-15T09:27:02.864Z,12.33
2019-02-15T09:28:12.926Z,12.31
2019-02-15T09:29:23.038Z,12.36
2019-02-15T09:30:33.133Z,12.38
2019-02-15T09:31:43.410Z,12.38
2019-02-15T09:32:53.235Z,12.45
2019-02-15T09:34:03.378Z,12.47
2019-02-15T09:35:13.460Z,12.44
2019-02-15T09:36:23.281Z,12.53
2019-02-15T09:37:33.447Z,12.58
2019-02-15T09:38:43.531Z,12.62
2019-02-15T09:39:53.617Z,12.65
2019-02-15T09:41:06.365Z,12.77
2019-02-15T09:42:16.445Z,12.74
2019-02-15T09:43:26.521Z,12.76
2019-02-15T09:44:36.336Z,12.88
2019-02-15T09:45:46.141Z,12.94
2019-02-15T09:46:56.673Z,12.88
2019-02-15T09:48:08.429Z,12.91
2019-02-15T09:49:19.944Z,13.03
2019-02-15T09:50:31.983Z,13.06
2019-02-15T09:51:41.878Z,13.19
2019-02-15T09:52:52.225Z,13.28
2019-02-15T09:54:02.903Z,13.25
2019-02-15T09:55:12.976Z,13.44
2019-02-15T09:56:23.281Z,13.47
2019-02-15T09:57:33.354Z,13.48
2019-02-15T09:58:43.666Z,13.6
2019-02-15T09:59:53.735Z,13.63
2019-02-15T10:01:03.800Z,13.58
2019-02-15T10:02:13.867Z,13.58
2019-02-15T10:03:24.219Z,13.63
2019-02-15T10:04:34.293Z,13.62
2019-02-15T10:05:44.355Z,13.62
2019-02-15T10:06:54.442Z,13.66
2019-02-15T10:08:04.611Z,13.62
2019-02-15T10:09:14.957Z,13.68
2019-02-15T10:10:25.247Z,13.68
2019-02-15T10:11:35.400Z,13.73
2019-02-15T10:12:45.535Z,13.68
2019-02-15T10:13:55.659Z,13.83
2019-02-15T10:15:06.296Z,13.83
2019-02-15T10:16:16.591Z,13.84
2019-02-15T10:17:35.228Z,13.79
2019-02-15T10:18:46.009Z,13.88
2019-02-15T10:19:56.714Z,13.91
2019-02-15T10:21:06.802Z,13.9
2019-02-15T10:22:17.944Z,13.94
2019-02-15T10:23:29.528Z,13.91
2019-02-15T10:24:39.955Z,13.94
2019-02-15T10:25:50.701Z,14.01
2019-02-15T10:27:01.231Z,14.08
2019-02-15T10:28:12.382Z,14.01
2019-02-15T10:29:23.103Z,14.08
2019-02-15T10:30:33.487Z,14.13
2019-02-15T10:31:43.558Z,14.21
2019-02-15T10:32:53.885Z,14.13
2019-02-15T10:34:03.977Z,14.27
2019-02-15T10:35:13.833Z,14.26
2019-02-15T10:36:23.984Z,14.28
2019-02-15T10:37:34.073Z,14.3
2019-02-15T10:38:44.146Z,14.39
2019-02-15T10:39:54.226Z,14.39
2019-02-15T10:41:04.288Z,14.42
2019-02-15T10:42:14.449Z,14.45
2019-02-15T10:43:24.307Z,14.57
2019-02-15T10:44:34.364Z,14.59
2019-02-15T10:45:44.451Z,14.74
2019-02-15T10:46:54.292Z,14.63
2019-02-15T10:48:04.462Z,14.64
2019-02-15T10:49:16.133Z,14.71
2019-02-15T10:50:26.210Z,14.71
2019-02-15T10:51:36.272Z,14.77
2019-02-15T10:52:46.624Z,14.77
2019-02-15T10:53:56.742Z,14.7
2019-02-15T10:55:07.614Z,14.74
2019-02-15T10:56:17.720Z,14.74
2019-02-15T10:57:27.795Z,14.89
2019-02-15T10:58:38.097Z,14.93
2019-02-15T10:59:48.245Z,14.93
2019-02-15T11:00:58.296Z,15.07
2019-02-15T11:02:08.587Z,15.07
2019-02-15T11:03:18.660Z,15.1
2019-02-15T11:04:28.801Z,15.07
2019-02-15T11:05:38.852Z,15.15
2019-02-15T11:06:48.908Z,15.15
2019-02-15T11:07:58.946Z,15.2
2019-02-15T11:09:09.022Z,15.26
2019-02-15T11:10:19.113Z,15.26
2019-02-15T11:11:29.173Z,15.3
2019-02-15T11:12:39.495Z,15.26
2019-02-15T11:13:49.584Z,15.37
2019-02-15T11:14:59.700Z,15.34
2019-02-15T11:16:10.687Z,15.35
2019-02-15T11:17:20.503Z,15.31
2019-02-15T11:18:30.564Z,15.35
2019-02-15T11:19:40.665Z,15.41
2019-02-15T11:20:50.489Z,15.41
2019-02-15T11:22:03.262Z,15.47
2019-02-15T11:23:13.322Z,15.49
2019-02-15T11:24:23.140Z,15.55
2019-02-15T11:25:33.184Z,15.59
2019-02-15T11:26:43.285Z,15.6
2019-02-15T11:27:54.414Z,15.6
2019-02-15T11:29:08.077Z,15.6
2019-02-15T11:30:18.514Z,15.59
2019-02-15T11:31:28.877Z,15.65
2019-02-15T11:32:40.148Z,15.65
2019-02-15T11:33:52.404Z,15.65
2019-02-15T11:35:04.014Z,15.63
2019-02-15T11:36:15.155Z,15.67
2019-02-15T11:37:25.973Z,15.62
2019-02-15T11:38:36.493Z,15.68
2019-02-15T11:39:47.533Z,15.65
2019-02-15T11:40:59.159Z,15.7
2019-02-15T11:42:19.223Z,15.67
2019-02-15T11:43:29.403Z,15.71
2019-02-15T11:44:39.747Z,15.83
2019-02-15T11:45:49.929Z,15.8
2019-02-15T11:47:02.918Z,15.83
2019-02-15T11:48:12.752Z,15.75
2019-02-15T11:49:22.561Z,15.74
2019-02-15T11:50:32.134Z,15.73
2019-02-15T11:51:41.989Z,15.62
2019-02-15T11:52:52.056Z,15.63
2019-02-15T11:54:05.083Z,15.7
2019-02-15T11:55:14.929Z,15.75
2019-02-15T11:56:24.514Z,15.86
2019-02-15T11:57:34.582Z,15.92
2019-02-15T11:58:44.458Z,15.92
2019-02-15T11:59:54.639Z,15.88
2019-02-15T12:01:04.736Z,15.93
2019-02-15T12:02:15.222Z,15.92
2019-02-15T12:03:25.382Z,16.11
2019-02-15T12:04:35.468Z,16.04
2019-02-15T12:05:45.548Z,16.07
2019-02-15T12:06:55.637Z,16.04
2019-02-15T12:08:08.249Z,16.07
2019-02-15T12:09:18.624Z,16.06
2019-02-15T12:10:29.210Z,16.08
2019-02-15T12:11:39.345Z,16.17
2019-02-15T12:12:49.433Z,16.13
2019-02-15T12:13:59.717Z,16.16
2019-02-15T12:15:10.326Z,16.11
2019-02-15T12:16:20.142Z,16.1
2019-02-15T12:17:30.477Z,16.11
2019-02-15T12:18:40.538Z,16.21
2019-02-15T12:19:50.351Z,16.14
2019-02-15T12:21:00.426Z,16.1
2019-02-15T12:22:10.260Z,16.26
2019-02-15T12:23:20.611Z,16.25
2019-02-15T12:24:30.440Z,16.27
2019-02-15T12:25:40.530Z,16.36
2019-02-15T12:26:50.392Z,16.36
2019-02-15T12:28:01.977Z,16.36
2019-02-15T12:29:11.847Z,16.42
2019-02-15T12:30:22.189Z,16.39
2019-02-15T12:31:32.015Z,16.42
2019-02-15T12:32:41.813Z,16.4
2019-02-15T12:33:51.837Z,16.36
2019-02-15T12:35:01.935Z,16.4
2019-02-15T12:36:12.110Z,16.4
2019-02-15T12:37:22.190Z,16.47
2019-02-15T12:38:32.323Z,16.44
2019-02-15T12:39:42.439Z,16.52
2019-02-15T12:40:52.944Z,16.47
2019-02-15T12:42:03.034Z,16.52
2019-02-15T12:43:13.381Z,16.66
2019-02-15T12:44:23.328Z,16.58
2019-02-15T12:45:33.450Z,16.62
2019-02-15T12:46:43.571Z,16.58
2019-02-15T12:47:53.453Z,16.59
2019-02-15T12:49:05.683Z,16.55
2019-02-15T12:50:16.025Z,16.44
2019-02-15T12:51:26.084Z,16.42
2019-02-15T12:52:36.153Z,16.44
2019-02-15T12:53:46.752Z,16.4
2019-02-15T12:54:56.839Z,16.37
2019-02-15T12:56:09.238Z,16.4
2019-02-15T12:57:19.108Z,16.45
2019-02-15T12:58:29.178Z,16.44
2019-02-15T12:59:40.015Z,16.58
2019-02-15T13:00:50.122Z,16.4
2019-02-15T13:02:01.092Z,16.51
2019-02-15T13:03:11.163Z,16.4
2019-02-15T13:04:21.500Z,16.52
2019-02-15T13:05:31.636Z,16.48
2019-02-15T13:06:43.056Z,16.47
2019-02-15T13:07:54.698Z,16.42
2019-02-15T13:09:06.140Z,16.45
2019-02-15T13:10:16.258Z,16.52
2019-02-15T13:11:26.487Z,16.57
2019-02-15T13:12:36.348Z,16.54
2019-02-15T13:13:46.488Z,16.55
2019-02-15T13:14:56.602Z,16.47
2019-02-15T13:16:08.126Z,16.4
2019-02-15T13:17:26.810Z,16.44
2019-02-15T13:18:36.896Z,16.48
2019-02-15T13:19:47.013Z,16.42
2019-02-15T13:20:57.176Z,16.47
2019-02-15T13:22:07.031Z,16.44
2019-02-15T13:23:17.471Z,16.47
2019-02-15T13:24:27.561Z,16.52
2019-02-15T13:25:41.794Z,16.44
2019-02-15T13:26:51.606Z,16.45
2019-02-15T13:28:03.199Z,16.4
2019-02-15T13:29:13.549Z,16.47
2019-02-15T13:30:23.683Z,16.4
2019-02-15T13:31:34.038Z,16.51
2019-02-15T13:32:44.118Z,16.57
2019-02-15T13:33:53.937Z,16.54
2019-02-15T13:35:05.238Z,16.55
2019-02-15T13:36:15.321Z,16.54
2019-02-15T13:37:25.453Z,16.66
2019-02-15T13:38:35.782Z,16.67
2019-02-15T13:39:45.623Z,16.63
2019-02-15T13:40:55.487Z,16.58
2019-02-15T13:42:05.323Z,16.54
2019-02-15T13:43:15.438Z,16.58
2019-02-15T13:44:25.742Z,16.59
2019-02-15T13:45:35.824Z,16.62
2019-02-15T13:46:46.346Z,16.54
2019-02-15T13:47:56.782Z,16.54
2019-02-15T13:49:08.704Z,16.58
2019-02-15T13:50:21.791Z,16.58
2019-02-15T13:51:32.583Z,16.65
2019-02-15T13:52:42.913Z,16.66
2019-02-15T13:53:53.027Z,16.49
2019-02-15T13:55:03.112Z,16.55
2019-02-15T13:56:12.983Z,16.48
2019-02-15T13:57:23.112Z,16.47
2019-02-15T13:58:33.239Z,16.45
2019-02-15T13:59:44.115Z,16.4
2019-02-15T14:00:54.320Z,16.39
2019-02-15T14:02:04.153Z,16.36
2019-02-15T14:03:14.273Z,16.42
2019-02-15T14:04:24.606Z,16.42
2019-02-15T14:05:34.521Z,16.47
2019-02-15T14:06:44.666Z,16.39
2019-02-15T14:07:54.808Z,16.33
2019-02-15T14:09:04.707Z,16.39
2019-02-15T14:10:14.971Z,16.42
2019-02-15T14:11:25.353Z,16.33
2019-02-15T14:12:35.463Z,16.32
2019-02-15T14:13:45.573Z,16.44
2019-02-15T14:14:55.805Z,16.4
2019-02-15T14:16:07.207Z,16.37
2019-02-15T14:17:19.584Z,16.37
2019-02-15T14:18:31.456Z,16.37
2019-02-15T14:19:42.540Z,16.33
2019-02-15T14:20:52.637Z,16.34
2019-02-15T14:22:03.556Z,16.37
2019-02-15T14:23:14.008Z,16.37
2019-02-15T14:27:25.586Z,16.33
2019-02-15T14:28:35.703Z,16.42
2019-02-15T14:29:45.535Z,16.47
2019-02-15T14:30:55.805Z,16.47
2019-02-15T14:32:06.204Z,16.42
2019-02-15T14:33:16.280Z,16.37
2019-02-15T14:36:49.371Z,16.4
2019-02-15T14:37:59.191Z,16.36
2019-02-15T14:39:10.291Z,16.22
2019-02-15T14:40:20.375Z,16.18
2019-02-15T14:41:30.498Z,16.17
2019-02-15T14:42:40.372Z,16.14
2019-02-15T14:43:50.460Z,15.96
2019-02-15T14:45:02.463Z,15.93
2019-02-15T14:46:12.530Z,15.91
2019-02-15T14:47:22.610Z,15.91
2019-02-15T14:48:32.692Z,15.81
2019-02-15T14:49:42.257Z,15.8
2019-02-15T14:50:52.390Z,15.81
2019-02-15T14:52:02.490Z,15.78
2019-02-15T14:53:12.595Z,15.68
2019-02-15T14:54:22.683Z,15.71
2019-02-15T14:55:32.993Z,15.62
2019-02-15T14:56:43.081Z,15.68
2019-02-15T14:57:53.170Z,15.67
2019-02-15T14:59:03.272Z,15.62
2019-02-15T15:00:13.343Z,15.55
2019-02-15T15:01:23.150Z,15.56
2019-02-15T15:02:33.237Z,15.53
2019-02-15T15:03:43.294Z,15.52
2019-02-15T15:04:53.419Z,15.51
2019-02-15T15:06:04.881Z,15.43
2019-02-15T15:07:14.709Z,15.44
2019-02-15T15:08:24.592Z,15.44
2019-02-15T15:09:36.120Z,15.43
2019-02-15T15:10:46.239Z,15.45
2019-02-15T15:11:57.836Z,15.4
2019-02-15T15:13:08.866Z,15.3
2019-02-15T15:14:18.954Z,15.3
2019-02-15T15:15:29.057Z,15.3
2019-02-15T15:16:39.124Z,15.18
2019-02-15T15:17:50.021Z,15.2
2019-02-15T15:19:18.685Z,15.3
2019-02-15T15:20:28.758Z,15.25
2019-02-15T15:21:39.971Z,15.15
2019-02-15T15:22:50.051Z,15.08
2019-02-15T15:24:00.134Z,15.15
2019-02-15T15:25:10.462Z,15.1
2019-02-15T15:26:20.283Z,15.05
2019-02-15T15:27:30.623Z,15.05
2019-02-15T15:28:40.458Z,14.97
2019-02-15T15:29:52.905Z,14.9
2019-02-15T15:31:05.588Z,14.85
2019-02-15T15:32:16.711Z,14.89
2019-02-15T15:33:26.802Z,14.75
2019-02-15T15:34:36.917Z,14.74
2019-02-15T15:35:46.973Z,14.69
2019-02-15T15:36:57.059Z,14.66
2019-02-15T15:38:08.919Z,14.69
2019-02-15T15:39:18.729Z,14.71
2019-02-15T15:40:28.821Z,14.61
2019-02-15T15:41:39.553Z,14.66
2019-02-15T15:42:49.781Z,14.66
2019-02-15T15:43:59.869Z,14.48
2019-02-15T15:45:10.532Z,14.49
2019-02-15T15:46:20.624Z,14.33
2019-02-15T15:47:30.460Z,14.31
2019-02-15T15:48:40.828Z,14.31
2019-02-15T15:49:50.912Z,14.27
2019-02-15T15:51:02.924Z,14.24
2019-02-15T15:52:12.995Z,14.13
2019-02-15T15:53:22.808Z,14.06
2019-02-15T15:54:32.926Z,14.05
2019-02-15T15:55:43.055Z,13.95
2019-02-15T15:56:53.458Z,13.91
2019-02-15T15:58:05.589Z,13.79
2019-02-15T15:59:15.703Z,13.69
2019-02-15T16:00:25.320Z,13.53
2019-02-15T16:01:44.298Z,13.54